Ashkum, Illinois
Current Conditions -  °F | °C
As of 4:15 PM on Friday 24 Oct 2014 (Local Time) from KIKK Reporting Station
Clear Clear  
Wind Chill: 68°   Ceiling: Unl
Heat Index: 68°   Visibility: 10mi
Dew Point: 45°   Wind: 7mph
Humidity: 44%   Direction: 260°W
Pressure: 29.99"   Gusts: NA
Location:  40.88°N, 87.96°W
Report Text: KIKK 242115Z AUTO 26006KT 10SM CLR 20/07 A2999 RMK AO2 T02010074
Loading
Personal Weather Stations






























Interactive Weather Map
Tropical Storm Tracking
New forecast layout! Learn more

10-Day Weather Forecast

Advertisements
Track Severe Weather on mobile